createdAt,value
2022-12-25T00:00:46.549Z,58.28
2022-12-25T00:03:19.949Z,48.15
2022-12-25T00:05:47.044Z,40.58
2022-12-25T00:08:20.911Z,42.92
2022-12-25T00:10:47.785Z,42.90
2022-12-25T00:13:20.820Z,40.08
2022-12-25T00:15:47.787Z,39.38
2022-12-25T00:18:20.850Z,38.30
2022-12-25T00:21:06.842Z,34.45
2022-12-25T00:23:34.448Z,35.95
2022-12-25T00:26:14.873Z,34.30
2022-12-25T00:28:41.810Z,38.80
2022-12-25T00:31:14.555Z,35.08
2022-12-25T00:33:49.892Z,41.10
2022-12-25T00:36:19.647Z,32.40
2022-12-25T00:38:46.762Z,30.77
2022-12-25T00:41:22.888Z,27.88
2022-12-25T00:43:49.892Z,25.48
2022-12-25T00:46:22.933Z,30.25
2022-12-25T00:48:49.883Z,28.25
2022-12-25T00:51:23.146Z,28.58
2022-12-25T00:53:50.032Z,28.90
2022-12-25T00:56:23.897Z,28.85
2022-12-25T00:58:50.794Z,27.00
2022-12-25T01:01:24.889Z,26.92
2022-12-25T01:03:51.834Z,27.42
2022-12-25T01:06:24.901Z,30.08
2022-12-25T01:08:51.810Z,30.13
2022-12-25T01:11:24.840Z,27.42
2022-12-25T01:13:51.865Z,27.02
2022-12-25T01:16:25.915Z,25.27
2022-12-25T01:18:52.834Z,28.55
2022-12-25T01:21:26.855Z,30.52
2022-12-25T01:23:53.936Z,30.00
2022-12-25T01:26:30.884Z,29.95
2022-12-25T01:29:04.006Z,36.40
2022-12-25T01:31:31.002Z,36.60
2022-12-25T01:34:06.872Z,38.95
2022-12-25T01:37:22.617Z,44.83
2022-12-25T01:39:59.779Z,45.92
2022-12-25T01:42:32.907Z,40.67
2022-12-25T01:45:43.625Z,36.60
2022-12-25T01:48:21.934Z,37.03
2022-12-25T01:51:02.595Z,35.55
2022-12-25T01:53:35.887Z,32.53
2022-12-25T01:56:05.985Z,28.73
2022-12-25T01:58:39.893Z,29.70
2022-12-25T02:01:13.922Z,30.05
2022-12-25T02:03:40.877Z,27.00
2022-12-25T02:06:14.876Z,28.58
2022-12-25T02:08:48.930Z,28.52
2022-12-25T02:11:22.904Z,30.90
2022-12-25T02:13:49.795Z,29.75
2022-12-25T02:16:29.960Z,28.75
2022-12-25T02:19:11.402Z,28.73
2022-12-25T02:22:12.904Z,30.00
2022-12-25T02:25:22.898Z,30.88
2022-12-25T02:28:29.891Z,28.40
2022-12-25T02:31:39.575Z,31.15
2022-12-25T02:34:32.900Z,29.48
2022-12-25T02:37:32.928Z,28.17
2022-12-25T02:40:25.915Z,28.10
2022-12-25T02:43:04.075Z,27.10
2022-12-25T02:46:05.971Z,27.13
2022-12-25T02:48:35.810Z,29.13
2022-12-25T02:51:10.924Z,27.83
2022-12-25T02:53:39.029Z,28.23
2022-12-25T02:56:12.924Z,25.77
2022-12-25T02:58:40.107Z,28.02
2022-12-25T03:01:20.001Z,30.27
2022-12-25T03:03:53.940Z,30.88
2022-12-25T03:06:21.016Z,32.85
2022-12-25T03:08:59.929Z,33.17
2022-12-25T03:11:26.819Z,35.20
2022-12-25T03:14:10.921Z,38.42
2022-12-25T03:16:44.011Z,35.10
2022-12-25T03:19:16.916Z,41.17
2022-12-25T03:21:43.796Z,36.13
2022-12-25T03:24:16.962Z,37.33
2022-12-25T03:26:44.298Z,44.65
2022-12-25T03:29:17.892Z,37.85
2022-12-25T03:31:53.843Z,34.60
2022-12-25T03:35:02.928Z,38.30
2022-12-25T03:37:49.550Z,41.55
2022-12-25T03:40:54.962Z,39.58
2022-12-25T03:44:00.106Z,37.97
2022-12-25T03:46:38.973Z,43.22
2022-12-25T03:49:30.934Z,42.83
2022-12-25T03:52:13.957Z,40.20
2022-12-25T03:54:46.977Z,48.42
2022-12-25T03:57:19.948Z,42.42
2022-12-25T03:59:46.833Z,43.03
2022-12-25T04:02:20.017Z,42.00
2022-12-25T04:04:54.679Z,42.08
2022-12-25T04:07:31.970Z,49.55
2022-12-25T04:09:58.855Z,42.30
2022-12-25T04:12:25.721Z,49.58
2022-12-25T04:15:00.377Z,43.95
2022-12-25T04:17:33.977Z,45.08
2022-12-25T04:20:00.886Z,48.25
2022-12-25T04:22:33.985Z,44.53
2022-12-25T04:25:06.989Z,46.72
2022-12-25T04:27:33.895Z,49.63
2022-12-25T04:30:06.966Z,47.38
2022-12-25T04:32:33.859Z,48.58
2022-12-25T04:35:06.979Z,47.10
2022-12-25T04:37:33.811Z,43.13
2022-12-25T04:40:07.021Z,44.78
2022-12-25T04:42:33.892Z,45.10
2022-12-25T04:45:06.979Z,43.17
2022-12-25T04:47:33.858Z,42.95
2022-12-25T04:50:06.977Z,48.05
2022-12-25T04:52:38.861Z,45.40
2022-12-25T04:55:13.029Z,44.97
2022-12-25T04:57:40.130Z,45.15
2022-12-25T05:00:14.983Z,46.55
2022-12-25T05:02:42.016Z,45.00
2022-12-25T05:05:16.002Z,48.38
2022-12-25T05:07:42.820Z,52.47
2022-12-25T05:10:16.949Z,49.05
2022-12-25T05:12:43.913Z,44.63
2022-12-25T05:15:18.019Z,44.17
2022-12-25T05:17:44.949Z,50.20
2022-12-25T05:20:24.994Z,44.90
2022-12-25T05:22:58.017Z,45.17
2022-12-25T05:25:30.997Z,54.50
2022-12-25T05:28:00.993Z,51.28
2022-12-25T05:30:27.861Z,53.83
2022-12-25T05:33:01.021Z,52.47
2022-12-25T05:35:27.876Z,47.80
2022-12-25T05:38:01.007Z,49.80
2022-12-25T05:40:27.869Z,49.33
2022-12-25T05:43:01.027Z,53.45
2022-12-25T05:45:27.910Z,53.80
2022-12-25T05:48:01.027Z,52.15
2022-12-25T05:50:27.928Z,49.88
2022-12-25T05:53:07.705Z,53.05
2022-12-25T05:55:38.647Z,52.53
2022-12-25T05:58:13.024Z,57.78
2022-12-25T06:00:46.980Z,51.30
2022-12-25T06:03:20.053Z,59.13
2022-12-25T06:05:46.958Z,51.08
2022-12-25T06:08:13.899Z,56.28
2022-12-25T06:10:47.023Z,58.95
2022-12-25T06:13:13.903Z,62.17
2022-12-25T06:15:48.058Z,55.92
2022-12-25T06:18:14.994Z,52.80
2022-12-25T06:20:41.843Z,53.47
2022-12-25T06:23:15.047Z,52.40
2022-12-25T06:25:41.938Z,47.72
2022-12-25T06:28:15.011Z,48.85
2022-12-25T06:30:48.021Z,49.10
2022-12-25T06:33:14.913Z,46.60
2022-12-25T06:35:41.787Z,51.92
2022-12-25T06:38:15.027Z,53.10
2022-12-25T06:40:41.901Z,50.45
2022-12-25T06:43:15.052Z,46.78
2022-12-25T06:45:41.969Z,40.67
2022-12-25T06:48:15.169Z,47.33
2022-12-25T06:50:45.152Z,45.85
2022-12-25T06:53:12.024Z,45.72
2022-12-25T06:55:45.088Z,46.00
2022-12-25T06:58:12.021Z,45.72
2022-12-25T07:00:45.059Z,49.95
2022-12-25T07:03:14.782Z,48.53
2022-12-25T07:05:41.696Z,46.35
2022-12-25T07:08:15.084Z,51.97
2022-12-25T07:10:42.007Z,56.05
2022-12-25T07:13:15.060Z,51.35
2022-12-25T07:15:41.953Z,59.88
2022-12-25T07:18:15.059Z,54.63
2022-12-25T07:20:44.936Z,56.50
2022-12-25T07:23:18.076Z,57.97
2022-12-25T07:25:53.905Z,60.78
2022-12-25T07:28:27.090Z,60.25
2022-12-25T07:30:54.006Z,60.15
2022-12-25T07:33:21.171Z,55.63
2022-12-25T07:35:54.070Z,58.08
2022-12-25T07:38:20.917Z,61.65
2022-12-25T07:40:54.078Z,52.35
2022-12-25T07:43:21.008Z,47.70
2022-12-25T07:45:54.091Z,52.47
2022-12-25T07:48:21.000Z,55.47
2022-12-25T07:50:54.077Z,56.03
2022-12-25T07:53:20.931Z,52.72
2022-12-25T07:55:54.088Z,50.50
2022-12-25T07:58:23.469Z,50.72
2022-12-25T08:00:57.188Z,49.20
2022-12-25T08:03:24.268Z,50.65
2022-12-25T08:05:58.033Z,45.70
2022-12-25T08:08:31.118Z,52.10
2022-12-25T08:10:58.056Z,49.47
2022-12-25T08:13:24.951Z,51.53
2022-12-25T08:16:07.053Z,55.80
2022-12-25T08:18:41.055Z,52.03
2022-12-25T08:21:10.481Z,50.75
2022-12-25T08:23:39.912Z,51.53
2022-12-25T08:26:14.080Z,55.38
2022-12-25T08:28:47.087Z,53.47
2022-12-25T08:31:23.092Z,53.50
2022-12-25T08:33:58.062Z,54.70
2022-12-25T08:36:25.185Z,54.45
2022-12-25T08:38:56.991Z,56.22
2022-12-25T08:41:32.112Z,57.80
2022-12-25T08:43:59.037Z,59.78
2022-12-25T08:46:32.210Z,62.60
2022-12-25T08:48:59.144Z,56.35
2022-12-25T08:51:33.058Z,56.50
2022-12-25T08:54:00.806Z,58.55
2022-12-25T08:56:35.087Z,62.25
2022-12-25T08:59:02.300Z,61.45
2022-12-25T09:01:36.247Z,64.53
2022-12-25T09:04:03.267Z,63.15
2022-12-25T09:06:37.121Z,61.95
2022-12-25T09:09:04.030Z,64.32
2022-12-25T09:11:37.095Z,61.28
2022-12-25T09:14:04.007Z,67.82
2022-12-25T09:16:40.116Z,63.58
2022-12-25T09:19:07.066Z,65.82
2022-12-25T09:21:40.178Z,61.20
2022-12-25T09:24:14.155Z,63.42
2022-12-25T09:26:41.181Z,66.43
2022-12-25T09:29:15.192Z,68.72
2022-12-25T09:31:42.226Z,66.18
2022-12-25T09:34:18.922Z,73.07
2022-12-25T09:36:53.212Z,80.70
2022-12-25T09:39:27.157Z,75.82
2022-12-25T09:42:21.123Z,67.32
2022-12-25T09:44:58.203Z,77.60
2022-12-25T09:47:30.634Z,101.18
2022-12-25T09:50:24.127Z,116.03
2022-12-25T09:53:12.670Z,101.47
2022-12-25T09:56:10.105Z,100.53
2022-12-25T09:58:37.097Z,93.82
2022-12-25T10:01:19.293Z,91.30
2022-12-25T10:04:14.209Z,94.88
2022-12-25T10:07:26.360Z,86.97
2022-12-25T10:10:33.219Z,81.90
2022-12-25T10:13:03.095Z,96.13
2022-12-25T10:16:03.243Z,100.57
2022-12-25T10:18:59.178Z,113.30
2022-12-25T10:21:26.145Z,97.05
2022-12-25T10:24:25.224Z,94.63
2022-12-25T10:26:52.570Z,96.05
2022-12-25T10:29:26.220Z,103.13
2022-12-25T10:31:54.662Z,94.82
2022-12-25T10:34:21.813Z,102.93
2022-12-25T10:36:55.311Z,97.85
2022-12-25T10:39:24.484Z,97.95
2022-12-25T10:42:33.404Z,98.18
2022-12-25T10:45:02.887Z,97.43
2022-12-25T10:47:42.382Z,93.15
2022-12-25T10:50:10.803Z,103.53
2022-12-25T10:53:02.155Z,94.70
2022-12-25T10:55:29.935Z,98.40
2022-12-25T10:57:57.097Z,100.47
2022-12-25T11:00:36.173Z,95.97
2022-12-25T11:03:03.225Z,96.75
2022-12-25T11:05:39.247Z,98.85
2022-12-25T11:08:19.986Z,95.78
2022-12-25T11:11:08.167Z,87.90
2022-12-25T11:13:39.300Z,99.53
2022-12-25T11:16:13.344Z,96.55
2022-12-25T11:18:51.545Z,95.40
2022-12-25T11:21:36.225Z,97.82
2022-12-25T11:24:12.149Z,94.20
2022-12-25T11:27:00.165Z,84.80
2022-12-25T11:29:52.316Z,100.85
2022-12-25T11:32:41.157Z,92.78
2022-12-25T11:35:14.321Z,88.35
2022-12-25T11:37:51.177Z,105.05
2022-12-25T11:40:22.350Z,96.28
2022-12-25T11:43:08.049Z,101.95
2022-12-25T11:45:43.984Z,100.72
2022-12-25T11:48:36.210Z,94.20
2022-12-25T11:51:03.508Z,91.03
2022-12-25T11:53:43.172Z,87.80
2022-12-25T11:56:29.195Z,90.40
2022-12-25T11:59:01.577Z,86.95
2022-12-25T12:01:45.330Z,83.65
2022-12-25T12:04:42.260Z,92.10
2022-12-25T12:07:33.241Z,88.47
2022-12-25T12:10:28.229Z,84.22
2022-12-25T12:13:37.236Z,81.30
2022-12-25T12:16:10.218Z,82.75
2022-12-25T12:18:50.011Z,81.80
2022-12-25T12:21:26.303Z,86.15
2022-12-25T12:24:20.235Z,83.25
2022-12-25T12:26:47.367Z,87.20
2022-12-25T12:29:49.197Z,88.05
2022-12-25T12:32:30.394Z,83.47
2022-12-25T12:35:04.202Z,88.25
2022-12-25T12:37:34.248Z,89.05
2022-12-25T12:40:07.251Z,83.28
2022-12-25T12:42:37.522Z,97.90
2022-12-25T12:45:32.279Z,87.25
2022-12-25T12:47:59.209Z,93.35
2022-12-25T12:50:37.196Z,86.50
2022-12-25T12:53:29.263Z,87.60
2022-12-25T12:56:03.249Z,94.93
2022-12-25T12:58:39.246Z,92.32
2022-12-25T13:01:27.312Z,96.10
2022-12-25T13:04:33.206Z,94.95
2022-12-25T13:07:13.388Z,89.05
2022-12-25T13:10:05.360Z,89.40
2022-12-25T13:12:39.258Z,99.82
2022-12-25T13:15:12.829Z,94.38
2022-12-25T13:17:49.227Z,90.55
2022-12-25T13:20:49.863Z,103.30
2022-12-25T13:23:41.252Z,100.07
2022-12-25T13:26:26.620Z,94.53
2022-12-25T13:29:00.250Z,92.72
2022-12-25T13:31:35.306Z,91.40
2022-12-25T13:34:13.239Z,92.15
2022-12-25T13:36:40.218Z,91.32
2022-12-25T13:39:21.253Z,94.13
2022-12-25T13:41:49.914Z,88.57
2022-12-25T13:44:28.262Z,97.97
2022-12-25T13:46:55.164Z,91.13
2022-12-25T13:49:30.233Z,90.70
2022-12-25T13:52:14.167Z,101.65
2022-12-25T13:55:16.311Z,98.28
2022-12-25T13:57:51.867Z,89.53
2022-12-25T14:00:46.333Z,93.35
2022-12-25T14:03:42.339Z,88.68
2022-12-25T14:06:30.319Z,91.53
2022-12-25T14:08:58.075Z,90.43
2022-12-25T14:11:34.328Z,98.68
2022-12-25T14:14:10.324Z,93.18
2022-12-25T14:16:37.271Z,93.40
2022-12-25T14:19:35.301Z,86.75
2022-12-25T14:22:08.262Z,90.68
2022-12-25T14:24:41.286Z,90.03
2022-12-25T14:27:20.559Z,95.20
2022-12-25T14:29:55.339Z,91.45
2022-12-25T14:32:25.213Z,94.03
2022-12-25T14:35:03.338Z,93.00
2022-12-25T14:37:38.344Z,92.22
2022-12-25T14:40:25.286Z,84.30
2022-12-25T14:43:09.342Z,94.70
2022-12-25T14:45:37.468Z,91.45
2022-12-25T14:48:32.288Z,92.38
2022-12-25T14:51:01.225Z,84.03
2022-12-25T14:53:59.344Z,86.28
2022-12-25T14:56:27.308Z,84.50
2022-12-25T14:59:03.366Z,91.05
2022-12-25T15:01:37.080Z,79.13
2022-12-25T15:04:18.325Z,98.22
2022-12-25T15:06:59.484Z,107.32
2022-12-25T15:09:34.342Z,95.82
2022-12-25T15:12:01.367Z,96.70
2022-12-25T15:14:28.429Z,93.00
2022-12-25T15:17:06.371Z,84.68
2022-12-25T15:19:38.295Z,84.72
2022-12-25T15:22:12.319Z,89.57
2022-12-25T15:24:39.371Z,81.80
2022-12-25T15:27:20.323Z,79.45
2022-12-25T15:32:41.370Z,78.53
2022-12-25T15:35:13.822Z,79.85
2022-12-25T15:37:47.392Z,81.93
2022-12-25T15:40:22.334Z,89.68
2022-12-25T15:42:49.296Z,85.65
2022-12-25T15:45:41.359Z,81.55
2022-12-25T15:48:08.294Z,85.07
2022-12-25T15:50:35.307Z,81.00
2022-12-25T15:53:08.358Z,81.18
2022-12-25T15:55:35.353Z,73.18
2022-12-25T15:58:02.314Z,76.93
2022-12-25T16:00:35.373Z,79.72
2022-12-25T16:03:08.516Z,75.85
2022-12-25T16:05:35.601Z,80.90
2022-12-25T16:08:09.331Z,82.95
2022-12-25T16:10:44.642Z,91.38
2022-12-25T16:13:18.316Z,75.35
2022-12-25T16:15:45.422Z,76.15
2022-12-25T16:18:19.422Z,74.13
2022-12-25T16:20:53.660Z,80.57
2022-12-25T16:23:27.450Z,83.57
2022-12-25T16:25:54.424Z,80.18
2022-12-25T16:28:28.394Z,77.85
2022-12-25T16:31:02.512Z,83.22
2022-12-25T16:33:36.433Z,84.40
2022-12-25T16:36:03.603Z,80.20
2022-12-25T16:38:30.572Z,80.47
2022-12-25T16:41:06.382Z,82.03
2022-12-25T16:43:40.395Z,78.68
2022-12-25T16:46:13.612Z,79.32
2022-12-25T16:48:47.423Z,88.72
2022-12-25T16:51:16.796Z,91.30
2022-12-25T16:53:43.950Z,110.78
2022-12-25T16:56:22.428Z,101.75
2022-12-25T16:58:56.412Z,90.50
2022-12-25T17:01:23.765Z,87.50
2022-12-25T17:03:57.402Z,80.13
2022-12-25T17:06:26.031Z,83.25
2022-12-25T17:09:02.397Z,79.60
2022-12-25T17:11:29.550Z,81.55
2022-12-25T17:14:07.435Z,76.28
2022-12-25T17:16:36.138Z,79.07
2022-12-25T17:19:06.318Z,79.03
2022-12-25T17:21:40.477Z,77.72
2022-12-25T17:24:07.668Z,79.82
2022-12-25T17:26:34.650Z,78.05
2022-12-25T17:29:08.431Z,81.63
2022-12-25T17:31:42.436Z,80.38
2022-12-25T17:34:10.292Z,80.95
2022-12-25T17:36:43.382Z,97.80
2022-12-25T17:39:10.449Z,85.30
2022-12-25T17:41:37.443Z,84.22
2022-12-25T17:44:11.440Z,76.90
2022-12-25T17:46:38.488Z,77.22
2022-12-25T17:49:05.596Z,79.43
2022-12-25T17:51:39.427Z,80.43
2022-12-25T17:54:13.442Z,80.97
2022-12-25T17:56:40.402Z,78.80
2022-12-25T17:59:14.457Z,83.57
2022-12-25T18:01:41.550Z,82.55
2022-12-25T18:04:16.518Z,77.43
2022-12-25T18:06:43.510Z,85.13
2022-12-25T18:09:17.434Z,78.00
2022-12-25T18:11:44.441Z,74.43
2022-12-25T18:14:22.455Z,78.80
2022-12-25T18:16:55.444Z,79.10
2022-12-25T18:19:22.400Z,90.90
2022-12-25T18:21:57.425Z,110.20
2022-12-25T18:24:30.433Z,109.63
2022-12-25T18:26:57.408Z,88.72
2022-12-25T18:29:24.351Z,75.10
2022-12-25T18:31:57.474Z,78.57
2022-12-25T18:34:24.469Z,77.68
2022-12-25T18:36:57.414Z,78.72
2022-12-25T18:39:30.439Z,87.40
2022-12-25T18:42:03.460Z,84.97
2022-12-25T18:44:30.560Z,80.95
2022-12-25T18:47:04.412Z,77.13
2022-12-25T18:49:32.351Z,86.43
2022-12-25T18:52:47.755Z,80.30
2022-12-25T18:54:52.422Z,75.28
2022-12-25T18:57:19.300Z,85.60
2022-12-25T18:59:52.508Z,75.03
2022-12-25T19:02:26.587Z,72.57
2022-12-25T19:04:53.948Z,75.97
2022-12-25T19:07:27.425Z,74.43
2022-12-25T19:10:00.451Z,73.70
2022-12-25T19:12:33.489Z,68.13
2022-12-25T19:15:00.359Z,71.28
2022-12-25T19:17:33.467Z,72.80
2022-12-25T19:20:07.456Z,73.60
2022-12-25T19:22:34.327Z,78.10
2022-12-25T19:25:01.213Z,79.18
2022-12-25T19:27:34.454Z,78.55
2022-12-25T19:30:01.387Z,74.63
2022-12-25T19:32:34.481Z,83.05
2022-12-25T19:35:07.463Z,84.07
2022-12-25T19:37:34.408Z,76.70
2022-12-25T19:40:07.456Z,82.78
2022-12-25T19:42:34.337Z,117.18
2022-12-25T19:45:01.284Z,167.63
2022-12-25T19:47:34.467Z,145.55
2022-12-25T19:50:03.455Z,110.72
2022-12-25T19:52:37.436Z,99.88
2022-12-25T19:55:11.451Z,94.85
2022-12-25T19:57:38.321Z,99.75
2022-12-25T20:00:06.363Z,94.60
2022-12-25T20:02:39.711Z,93.38
2022-12-25T20:05:07.636Z,97.20
2022-12-25T20:07:41.507Z,85.53
2022-12-25T20:10:08.742Z,88.80
2022-12-25T20:12:35.803Z,85.78
2022-12-25T20:15:09.484Z,77.38
2022-12-25T20:17:36.389Z,69.78
2022-12-25T20:20:10.552Z,78.07
2022-12-25T20:22:37.492Z,66.43
2022-12-25T20:25:11.477Z,73.80
2022-12-25T20:27:38.366Z,76.85
2022-12-25T20:30:06.283Z,71.63
2022-12-25T20:32:42.480Z,70.53
2022-12-25T20:35:11.900Z,62.88
2022-12-25T20:37:45.549Z,71.07
2022-12-25T20:40:19.582Z,75.13
2022-12-25T20:42:46.480Z,63.17
2022-12-25T20:45:19.475Z,64.00
2022-12-25T20:47:52.523Z,64.13
2022-12-25T20:50:19.560Z,62.40
2022-12-25T20:52:46.493Z,62.10
2022-12-25T20:55:19.523Z,63.83
2022-12-25T20:57:46.414Z,69.13
2022-12-25T21:00:20.484Z,62.00
2022-12-25T21:02:47.593Z,60.15
2022-12-25T21:05:21.469Z,67.65
2022-12-25T21:07:54.550Z,67.47
2022-12-25T21:10:21.430Z,67.10
2022-12-25T21:12:54.490Z,67.70
2022-12-25T21:15:27.587Z,56.70
2022-12-25T21:17:54.533Z,64.75
2022-12-25T21:20:21.494Z,63.85
2022-12-25T21:22:54.528Z,62.22
2022-12-25T21:25:27.552Z,69.53
2022-12-25T21:27:54.482Z,69.03
2022-12-25T21:30:21.417Z,62.20
2022-12-25T21:32:54.523Z,60.28
2022-12-25T21:35:21.452Z,56.10
2022-12-25T21:37:54.520Z,61.25
2022-12-25T21:40:21.447Z,54.33
2022-12-25T21:42:54.510Z,61.95
2022-12-25T21:45:21.428Z,54.47
2022-12-25T21:48:01.726Z,69.38
2022-12-25T21:50:39.414Z,58.58
2022-12-25T21:53:13.979Z,64.43
2022-12-25T21:55:41.241Z,61.15
2022-12-25T21:58:15.293Z,59.92
2022-12-25T22:00:48.728Z,57.22
2022-12-25T22:03:15.905Z,60.83
2022-12-25T22:05:49.624Z,59.78
2022-12-25T22:08:16.813Z,56.65
2022-12-25T22:10:50.575Z,57.28
2022-12-25T22:13:17.612Z,63.17
2022-12-25T22:15:51.648Z,62.65
2022-12-25T22:18:18.640Z,62.13
2022-12-25T22:20:51.572Z,60.85
2022-12-25T22:23:18.496Z,63.72
2022-12-25T22:25:51.575Z,64.20
2022-12-25T22:28:18.508Z,58.83
2022-12-25T22:30:51.643Z,62.10
2022-12-25T22:33:18.605Z,55.45
2022-12-25T22:35:52.571Z,58.55
2022-12-25T22:38:25.538Z,62.30
2022-12-25T22:40:58.515Z,59.30
2022-12-25T22:44:06.326Z,57.40
2022-12-25T22:46:19.155Z,56.38
2022-12-25T22:49:04.571Z,54.22
2022-12-25T22:51:31.502Z,53.75
2022-12-25T22:54:05.595Z,54.47
2022-12-25T22:56:32.599Z,53.53
2022-12-25T22:58:59.467Z,58.20
2022-12-25T23:01:33.725Z,53.53
2022-12-25T23:04:01.439Z,55.00
2022-12-25T23:06:34.620Z,62.00
2022-12-25T23:09:04.709Z,60.90
2022-12-25T23:11:38.594Z,58.00
2022-12-25T23:14:05.854Z,47.22
2022-12-25T23:16:32.932Z,48.10
2022-12-25T23:19:06.685Z,48.78
2022-12-25T23:21:33.612Z,46.13
2022-12-25T23:24:07.562Z,45.28
2022-12-25T23:26:34.481Z,49.13
2022-12-25T23:29:07.544Z,55.22
2022-12-25T23:31:36.650Z,61.00
2022-12-25T23:34:10.631Z,63.20
2022-12-25T23:36:37.612Z,65.53
2022-12-25T23:39:09.454Z,59.42
2022-12-25T23:41:47.671Z,57.85
2022-12-25T23:44:14.674Z,55.13
2022-12-25T23:46:52.801Z,56.53
2022-12-25T23:49:27.641Z,55.97
2022-12-25T23:51:54.785Z,51.75
2022-12-25T23:54:30.707Z,52.63
2022-12-25T23:57:04.601Z,55.42
2022-12-25T23:59:31.624Z,57.70
